createdAt,value
2022-09-04T00:02:51.939Z,16.71
2022-09-04T00:05:50.254Z,16.68
2022-09-04T00:08:53.837Z,16.63
2022-09-04T00:12:02.106Z,16.60
2022-09-04T00:15:25.842Z,16.57
2022-09-04T00:18:28.976Z,16.50
2022-09-04T00:21:26.986Z,16.49
2022-09-04T00:24:18.544Z,16.46
2022-09-04T00:27:10.830Z,16.44
2022-09-04T00:29:59.221Z,16.38
2022-09-04T00:32:49.946Z,16.37
2022-09-04T00:35:44.624Z,16.33
2022-09-04T00:38:38.248Z,16.32
2022-09-04T00:41:32.301Z,16.32
2022-09-04T00:44:34.514Z,16.27
2022-09-04T00:47:44.329Z,16.24
2022-09-04T00:50:48.803Z,16.21
2022-09-04T00:54:11.945Z,16.13
2022-09-04T00:57:13.723Z,16.11
2022-09-04T01:00:06.517Z,16.09
2022-09-04T01:03:07.294Z,16.05
2022-09-04T01:06:11.778Z,16.04
2022-09-04T01:09:06.050Z,16.03
2022-09-04T01:12:12.532Z,16.01
2022-09-04T01:15:21.234Z,15.98
2022-09-04T01:18:22.290Z,15.98
2022-09-04T01:21:30.252Z,15.99
2022-09-04T01:24:54.049Z,15.95
2022-09-04T01:27:48.714Z,15.91
2022-09-04T01:30:43.520Z,15.88
2022-09-04T01:33:44.347Z,15.89
2022-09-04T01:36:38.782Z,15.86
2022-09-04T01:39:29.053Z,15.84
2022-09-04T01:42:24.283Z,15.87
2022-09-04T01:45:11.083Z,15.86
2022-09-04T01:48:04.109Z,15.85
2022-09-04T01:50:54.398Z,15.78
2022-09-04T01:53:44.378Z,15.77
2022-09-04T01:56:59.225Z,15.77
2022-09-04T01:59:57.860Z,15.74
2022-09-04T02:03:02.960Z,15.71
2022-09-04T02:06:02.369Z,15.69
2022-09-04T02:09:02.940Z,15.63
2022-09-04T02:11:57.325Z,15.60
2022-09-04T02:15:10.421Z,15.58
2022-09-04T02:18:19.856Z,15.54
2022-09-04T02:21:42.711Z,15.50
2022-09-04T02:24:55.137Z,15.48
2022-09-04T02:28:07.018Z,15.46
2022-09-04T02:30:55.288Z,15.46
2022-09-04T02:33:49.471Z,15.47
2022-09-04T02:37:00.581Z,15.46
2022-09-04T02:40:33.813Z,15.44
2022-09-04T02:43:35.455Z,15.43
2022-09-04T02:46:48.734Z,15.40
2022-09-04T02:49:53.375Z,15.40
2022-09-04T02:52:57.123Z,15.40
2022-09-04T02:56:21.272Z,15.38
2022-09-04T02:59:47.786Z,15.38
2022-09-04T03:02:41.419Z,15.35
2022-09-04T03:05:46.454Z,15.31
2022-09-04T03:08:53.434Z,15.27
2022-09-04T03:11:45.951Z,15.25
2022-09-04T03:14:50.667Z,15.25
2022-09-04T03:18:02.758Z,15.23
2022-09-04T03:20:57.936Z,15.18
2022-09-04T03:23:51.765Z,15.14
2022-09-04T03:26:39.842Z,15.14
2022-09-04T03:30:03.820Z,15.14
2022-09-04T03:32:57.937Z,15.18
2022-09-04T03:35:59.043Z,15.17
2022-09-04T03:38:51.757Z,15.17
2022-09-04T03:41:49.351Z,15.17
2022-09-04T03:44:37.427Z,15.17
2022-09-04T03:47:59.018Z,15.12
2022-09-04T03:50:53.212Z,15.11
2022-09-04T03:53:46.722Z,15.10
2022-09-04T03:56:41.277Z,15.04
2022-09-04T03:59:53.059Z,15.01
2022-09-04T04:02:50.661Z,14.99
2022-09-04T04:05:53.422Z,14.97
2022-09-04T04:09:11.747Z,14.95
2022-09-04T04:12:10.576Z,14.88
2022-09-04T04:15:13.215Z,14.86
2022-09-04T04:18:13.226Z,14.82
2022-09-04T04:21:13.537Z,14.83
2022-09-04T04:24:04.632Z,14.79
2022-09-04T04:27:29.782Z,14.74
2022-09-04T04:30:17.211Z,14.73
2022-09-04T04:33:23.767Z,14.72
2022-09-04T04:36:32.762Z,14.67
2022-09-04T04:39:42.298Z,14.65
2022-09-04T04:42:50.300Z,14.63
2022-09-04T04:45:54.923Z,14.63
2022-09-04T04:49:08.350Z,14.61
2022-09-04T04:52:08.558Z,14.60
2022-09-04T04:55:12.634Z,14.63
2022-09-04T04:58:00.891Z,14.60
2022-09-04T05:01:09.450Z,14.60
2022-09-04T05:04:11.534Z,14.58
2022-09-04T05:07:03.403Z,14.60
2022-09-04T05:10:00.882Z,14.61
2022-09-04T05:13:13.095Z,14.64
2022-09-04T05:16:19.951Z,14.67
2022-09-04T05:19:23.184Z,14.73
2022-09-04T05:22:11.926Z,14.74
2022-09-04T05:25:13.568Z,14.78
2022-09-04T05:28:22.229Z,14.84
2022-09-04T05:31:19.198Z,14.92
2022-09-04T05:34:51.964Z,14.97
2022-09-04T05:37:46.947Z,15.05
2022-09-04T05:40:59.081Z,15.09
2022-09-04T05:43:59.877Z,15.11
2022-09-04T05:47:12.946Z,15.14
2022-09-04T05:50:05.151Z,15.18
2022-09-04T05:53:02.735Z,15.24
2022-09-04T05:56:16.895Z,15.27
2022-09-04T05:59:13.609Z,15.29
2022-09-04T06:02:11.063Z,15.37
2022-09-04T06:05:24.292Z,15.56
2022-09-04T06:08:28.713Z,15.70
2022-09-04T06:11:45.858Z,15.84
2022-09-04T06:14:33.936Z,16.08
2022-09-04T06:17:55.663Z,16.06
2022-09-04T06:20:55.434Z,15.90
2022-09-04T06:24:06.267Z,15.77
2022-09-04T06:27:00.338Z,15.67
2022-09-04T06:30:06.784Z,15.71
2022-09-04T06:33:05.337Z,15.78
2022-09-04T06:36:02.572Z,15.76
2022-09-04T06:38:56.676Z,15.90
2022-09-04T06:41:57.992Z,16.01
2022-09-04T06:44:55.650Z,16.09
2022-09-04T06:47:50.082Z,16.14
2022-09-04T06:51:08.134Z,16.27
2022-09-04T06:54:21.926Z,16.33
2022-09-04T06:57:11.454Z,16.44
2022-09-04T07:00:10.781Z,16.45
2022-09-04T07:03:14.782Z,16.67
2022-09-04T07:06:12.811Z,16.83
2022-09-04T07:09:16.913Z,16.73
2022-09-04T07:12:11.317Z,16.85
2022-09-04T07:15:12.353Z,17.05
2022-09-04T07:18:07.061Z,17.16
2022-09-04T07:21:06.366Z,17.24
2022-09-04T07:24:06.869Z,17.30
2022-09-04T07:26:58.059Z,17.47
2022-09-04T07:29:58.360Z,17.66
2022-09-04T07:32:59.612Z,17.83
2022-09-04T07:35:45.472Z,17.84
2022-09-04T07:39:00.683Z,17.73
2022-09-04T07:41:45.992Z,17.55
2022-09-04T07:44:48.885Z,17.58
2022-09-04T07:47:44.995Z,17.71
2022-09-04T07:50:40.248Z,17.86
2022-09-04T07:53:40.923Z,18.02
2022-09-04T07:56:38.275Z,18.14
2022-09-04T08:00:02.191Z,18.31
2022-09-04T08:03:13.506Z,18.46
2022-09-04T08:06:07.976Z,18.50
2022-09-04T08:09:05.397Z,18.70
2022-09-04T08:12:25.663Z,18.91
2022-09-04T08:15:22.017Z,18.83
2022-09-04T08:18:28.533Z,18.68
2022-09-04T08:21:29.261Z,18.68
2022-09-04T08:24:29.679Z,18.86
2022-09-04T08:27:44.414Z,19.19
2022-09-04T08:30:39.885Z,19.10
2022-09-04T08:33:44.805Z,19.05
2022-09-04T08:36:53.615Z,19.09
2022-09-04T08:40:01.364Z,19.39
2022-09-04T08:42:58.826Z,19.54
2022-09-04T08:45:58.173Z,19.46
2022-09-04T08:49:09.427Z,19.57
2022-09-04T08:52:31.889Z,19.87
2022-09-04T08:55:44.403Z,19.90
2022-09-04T08:58:55.216Z,19.73
2022-09-04T09:02:10.216Z,19.95
2022-09-04T09:05:19.313Z,20.05
2022-09-04T09:08:37.438Z,20.21
2022-09-04T09:11:53.154Z,20.17
2022-09-04T09:14:57.253Z,20.13
2022-09-04T09:17:45.694Z,20.42
2022-09-04T09:20:49.318Z,20.44
2022-09-04T09:23:39.091Z,20.55
2022-09-04T09:26:31.031Z,20.65
2022-09-04T09:29:31.964Z,20.54
2022-09-04T09:32:39.923Z,20.64
2022-09-04T09:35:55.802Z,20.73
2022-09-04T09:39:00.198Z,20.93
2022-09-04T09:42:00.847Z,21.22
2022-09-04T09:45:19.489Z,20.95
2022-09-04T09:48:21.175Z,21.08
2022-09-04T09:51:32.441Z,21.32
2022-09-04T09:54:37.855Z,21.39
2022-09-04T09:58:04.834Z,21.42
2022-09-04T10:01:08.494Z,21.50
2022-09-04T10:04:28.452Z,21.58
2022-09-04T10:08:10.894Z,21.69
2022-09-04T10:11:01.563Z,21.43
2022-09-04T10:14:15.708Z,21.50
2022-09-04T10:17:38.806Z,21.60
2022-09-04T10:20:49.390Z,21.79
2022-09-04T10:23:55.527Z,21.94
2022-09-04T10:26:56.114Z,22.00
2022-09-04T10:30:05.491Z,21.94
2022-09-04T10:33:11.716Z,22.08
2022-09-04T10:36:27.821Z,22.05
2022-09-04T10:39:56.442Z,22.15
2022-09-04T10:43:13.003Z,22.09
2022-09-04T10:46:22.847Z,21.99
2022-09-04T10:49:38.084Z,22.31
2022-09-04T10:52:35.837Z,22.51
2022-09-04T10:55:43.811Z,22.61
2022-09-04T10:58:40.127Z,22.62
2022-09-04T11:01:47.703Z,22.75
2022-09-04T11:05:00.810Z,22.75
2022-09-04T11:08:25.446Z,22.55
2022-09-04T11:11:52.825Z,22.23
2022-09-04T11:14:50.538Z,22.56
2022-09-04T11:18:00.888Z,22.65
2022-09-04T11:21:02.929Z,22.76
2022-09-04T11:24:13.325Z,22.94
2022-09-04T11:27:39.049Z,22.93
2022-09-04T11:30:35.629Z,22.87
2022-09-04T11:33:59.127Z,22.84
2022-09-04T11:37:31.608Z,22.90
2022-09-04T11:40:22.952Z,22.98
2022-09-04T11:43:24.432Z,23.05
2022-09-04T11:46:19.362Z,23.03
2022-09-04T11:49:41.893Z,23.03
2022-09-04T11:52:50.597Z,22.98
2022-09-04T11:56:09.922Z,23.18
2022-09-04T11:59:10.768Z,23.31
2022-09-04T12:02:38.764Z,23.42
2022-09-04T12:06:14.825Z,23.34
2022-09-04T12:09:17.572Z,23.20
2022-09-04T12:12:22.753Z,23.35
2022-09-04T12:15:54.591Z,23.36
2022-09-04T12:19:23.124Z,23.24
2022-09-04T12:22:31.116Z,23.19
2022-09-04T12:25:23.532Z,23.21
2022-09-04T12:28:39.724Z,23.21
2022-09-04T12:31:43.388Z,23.43
2022-09-04T12:34:37.599Z,23.51
2022-09-04T12:38:00.662Z,23.36
2022-09-04T12:41:12.219Z,23.41
2022-09-04T12:44:29.996Z,23.50
2022-09-04T12:47:18.226Z,23.49
2022-09-04T12:50:22.043Z,23.47
2022-09-04T12:53:26.836Z,23.36
2022-09-04T12:56:49.026Z,23.37
2022-09-04T12:59:47.413Z,23.35
2022-09-04T13:02:34.061Z,23.25
2022-09-04T13:06:01.568Z,23.35
2022-09-04T13:09:22.046Z,23.41
2022-09-04T13:12:13.391Z,23.23
2022-09-04T13:15:33.793Z,23.21
2022-09-04T13:18:33.255Z,23.18
2022-09-04T13:21:55.596Z,23.13
2022-09-04T13:25:04.060Z,23.18
2022-09-04T13:28:24.149Z,23.14
2022-09-04T13:31:19.151Z,23.06
2022-09-04T13:34:34.184Z,23.17
2022-09-04T13:37:31.449Z,23.22
2022-09-04T13:40:22.944Z,23.35
2022-09-04T13:43:41.162Z,23.48
2022-09-04T13:46:35.096Z,23.46
2022-09-04T13:49:48.070Z,23.59
2022-09-04T13:52:52.543Z,23.65
2022-09-04T13:55:41.728Z,23.66
2022-09-04T13:58:33.237Z,23.61
2022-09-04T14:01:25.654Z,23.52
2022-09-04T14:04:16.670Z,23.61
2022-09-04T14:07:09.889Z,23.73
2022-09-04T14:10:01.679Z,23.80
2022-09-04T14:12:54.390Z,23.77
2022-09-04T14:15:49.150Z,23.84
2022-09-04T14:18:45.454Z,23.92
2022-09-04T14:21:52.071Z,23.94
2022-09-04T14:24:59.002Z,23.92
2022-09-04T14:27:57.412Z,23.73
2022-09-04T14:31:10.648Z,23.46
2022-09-04T14:34:15.954Z,23.41
2022-09-04T14:37:40.273Z,23.37
2022-09-04T14:40:45.826Z,23.49
2022-09-04T14:43:59.465Z,23.64
2022-09-04T14:47:25.325Z,23.53
2022-09-04T14:50:13.502Z,23.31
2022-09-04T14:53:07.208Z,23.25
2022-09-04T14:56:01.667Z,23.15
2022-09-04T14:59:11.745Z,23.08
2022-09-04T15:02:09.442Z,23.17
2022-09-04T15:05:07.340Z,23.17
2022-09-04T15:08:00.015Z,23.27
2022-09-04T15:10:53.721Z,23.18
2022-09-04T15:13:52.753Z,23.10
2022-09-04T15:16:38.075Z,23.10
2022-09-04T15:19:46.426Z,23.10
2022-09-04T15:22:45.391Z,23.08
2022-09-04T15:25:56.936Z,23.07
2022-09-04T15:28:47.502Z,23.04
2022-09-04T15:31:38.099Z,23.03
2022-09-04T15:34:26.969Z,23.01
2022-09-04T15:37:30.937Z,22.98
2022-09-04T15:40:30.155Z,22.96
2022-09-04T15:43:15.484Z,22.92
2022-09-04T15:46:08.783Z,22.93
2022-09-04T15:49:32.200Z,22.87
2022-09-04T15:52:42.055Z,22.82
2022-09-04T15:55:29.601Z,22.77
2022-09-04T15:58:30.147Z,22.73
2022-09-04T16:01:24.863Z,22.67
2022-09-04T16:04:23.319Z,22.64
2022-09-04T16:07:19.680Z,22.59
2022-09-04T16:10:21.524Z,22.58
2022-09-04T16:13:49.348Z,22.58
2022-09-04T16:16:49.407Z,22.61
2022-09-04T16:19:57.702Z,22.58
2022-09-04T16:22:51.374Z,22.53
2022-09-04T16:25:43.671Z,22.52
2022-09-04T16:28:40.873Z,22.51
2022-09-04T16:31:34.772Z,22.46
2022-09-04T16:34:36.440Z,22.46
2022-09-04T16:37:38.776Z,22.40
2022-09-04T16:40:40.305Z,22.38
2022-09-04T16:43:31.369Z,22.33
2022-09-04T16:46:29.462Z,22.27
2022-09-04T16:49:25.800Z,22.25
2022-09-04T16:52:21.195Z,22.20
2022-09-04T16:55:15.045Z,22.14
2022-09-04T16:58:07.123Z,22.08
2022-09-04T17:01:14.096Z,22.03
2022-09-04T17:04:13.623Z,21.98
2022-09-04T17:07:13.007Z,21.93
2022-09-04T17:10:01.752Z,21.90
2022-09-04T17:12:57.479Z,21.85
2022-09-04T17:15:53.686Z,21.80
2022-09-04T17:18:47.356Z,21.76
2022-09-04T17:27:41.864Z,21.71
2022-09-04T17:29:03.084Z,21.66
2022-09-04T17:29:16.011Z,21.61
2022-09-04T17:34:18.143Z,21.55
2022-09-04T17:40:35.959Z,21.49
2022-09-04T17:40:49.260Z,21.43
2022-09-04T17:42:40.247Z,21.37
2022-09-04T17:45:34.979Z,21.31
2022-09-04T17:48:46.938Z,21.26
2022-09-04T17:51:33.736Z,21.22
2022-09-04T17:54:19.245Z,21.17
2022-09-04T17:57:13.147Z,21.12
2022-09-04T18:00:08.371Z,21.07
2022-09-04T18:03:12.951Z,21.01
2022-09-04T18:06:06.849Z,20.98
2022-09-04T18:09:41.857Z,20.93
2022-09-04T18:12:36.569Z,20.90
2022-09-04T18:15:33.398Z,20.87
2022-09-04T18:18:36.784Z,20.83
2022-09-04T18:21:41.049Z,20.79
2022-09-04T18:24:48.726Z,20.74
2022-09-04T18:27:44.635Z,20.69
2022-09-04T18:36:35.437Z,20.67
2022-09-04T18:37:17.802Z,20.63
2022-09-04T18:37:45.660Z,20.59
2022-09-04T18:43:34.604Z,20.57
2022-09-04T18:50:25.174Z,20.52
2022-09-04T18:50:43.620Z,20.47
2022-09-04T18:51:12.628Z,20.42
2022-09-04T18:53:53.864Z,20.39
2022-09-04T18:56:45.777Z,20.37
2022-09-04T18:59:42.835Z,20.32
2022-09-04T19:02:32.028Z,20.29
2022-09-04T19:05:18.278Z,20.25
2022-09-04T19:08:08.177Z,20.23
2022-09-04T19:10:58.042Z,20.20
2022-09-04T19:14:10.954Z,20.17
2022-09-04T19:17:10.033Z,20.14
2022-09-04T19:20:12.285Z,20.12
2022-09-04T19:23:15.437Z,20.08
2022-09-04T19:26:11.786Z,20.03
2022-09-04T19:29:20.345Z,20.00
2022-09-04T19:32:11.660Z,19.98
2022-09-04T19:35:12.033Z,19.91
2022-09-04T19:42:14.175Z,19.88
2022-09-04T19:46:05.764Z,19.83
2022-09-04T19:46:06.805Z,19.79
2022-09-04T19:47:37.457Z,19.77
2022-09-04T19:53:22.246Z,19.74
2022-09-04T19:53:50.158Z,19.71
2022-09-04T19:57:32.091Z,19.68
2022-09-04T20:00:31.363Z,19.63
2022-09-04T20:03:29.602Z,19.59
2022-09-04T20:06:21.878Z,19.54
2022-09-04T20:09:16.431Z,19.52
2022-09-04T20:12:20.494Z,19.49
2022-09-04T20:15:18.544Z,19.46
2022-09-04T20:18:25.335Z,19.43
2022-09-04T20:21:26.083Z,19.41
2022-09-04T20:24:21.931Z,19.39
2022-09-04T20:27:19.223Z,19.34
2022-09-04T20:30:18.133Z,19.31
2022-09-04T20:33:11.652Z,19.27
2022-09-04T20:36:08.249Z,19.24
2022-09-04T20:39:10.269Z,19.21
2022-09-04T20:42:08.209Z,19.16
2022-09-04T20:48:07.742Z,19.15
2022-09-04T20:52:46.214Z,19.10
2022-09-04T20:52:52.414Z,19.04
2022-09-04T20:54:51.031Z,19.02
2022-09-04T21:03:12.254Z,19.01
2022-09-04T21:03:21.750Z,18.96
2022-09-04T21:04:33.555Z,18.90
2022-09-04T21:07:41.152Z,18.88
2022-09-04T21:10:48.295Z,18.85
2022-09-04T21:13:41.864Z,18.82
2022-09-04T21:17:29.269Z,18.80
2022-09-04T21:20:34.668Z,18.76
2022-09-04T21:23:41.719Z,18.73
2022-09-04T21:27:03.747Z,18.69
2022-09-04T21:30:10.315Z,18.66
2022-09-04T21:33:35.932Z,18.63
2022-09-04T21:36:27.524Z,18.58
2022-09-04T21:39:37.235Z,18.52
2022-09-04T21:42:25.654Z,18.50
2022-09-04T21:45:35.069Z,18.47
2022-09-04T21:48:23.815Z,18.43
2022-09-04T21:51:28.548Z,18.39
2022-09-04T21:54:37.849Z,18.35
2022-09-04T22:02:13.736Z,18.30
2022-09-04T22:02:36.189Z,18.26
2022-09-04T22:04:46.477Z,18.23
2022-09-04T22:10:50.806Z,18.20
2022-09-04T22:13:42.850Z,18.16
2022-09-04T22:14:58.158Z,18.12
2022-09-04T22:18:32.146Z,18.10
2022-09-04T22:21:25.672Z,18.07
2022-09-04T22:24:29.881Z,18.05
2022-09-04T22:28:07.964Z,18.02
2022-09-04T22:31:22.673Z,17.98
2022-09-04T22:34:39.602Z,17.96
2022-09-04T22:37:58.921Z,17.91
2022-09-04T22:41:04.544Z,17.91
2022-09-04T22:44:26.412Z,17.88
2022-09-04T22:47:45.340Z,17.85
2022-09-04T22:50:49.785Z,17.83
2022-09-04T22:54:14.795Z,17.79
2022-09-04T22:57:09.286Z,17.73
2022-09-04T23:00:13.273Z,17.70
2022-09-04T23:03:33.082Z,17.68
2022-09-04T23:13:46.601Z,17.58
2022-09-04T23:13:53.024Z,17.63
2022-09-04T23:13:59.764Z,17.54
2022-09-04T23:16:32.982Z,17.52
2022-09-04T23:24:37.813Z,17.47
2022-09-04T23:26:48.243Z,17.41
2022-09-04T23:26:59.942Z,17.41
2022-09-04T23:30:02.203Z,17.37
2022-09-04T23:33:30.087Z,17.34
2022-09-04T23:36:18.434Z,17.34
2022-09-04T23:39:27.320Z,17.29
2022-09-04T23:42:49.373Z,17.29
2022-09-04T23:46:08.634Z,17.27
2022-09-04T23:49:12.328Z,17.25
2022-09-04T23:52:35.076Z,17.21
2022-09-04T23:55:49.999Z,17.19
2022-09-04T23:59:22.620Z,17.15
